Time;durP1;ratioP1;P1;durP2;ratioP2;P2;SDS_P1;SDS_P2;PMS_P1;PMS_P2;Temp;Humidity;BMP_temperature;BMP_pressure;BME280_temperature;BME280_humidity;BME280_pressure;Samples;Min_cycle;Max_cycle;Signal;HPM_P1;HPM_P2
2024/03/21 00:01:48;;;;;;;49.05;24.85;;;;;;;11.11;100.00;101967.56;5271397;28;20019;-76
2024/03/21 00:04:18;;;;;;;54.53;26.10;;;;;;;11.19;100.00;101971.34;5267157;28;20023;-74
2024/03/21 00:06:49;;;;;;;60.30;28.75;;;;;;;11.29;100.00;101980.25;5272907;28;20031;-75
2024/03/21 00:09:20;;;;;;;60.72;29.35;;;;;;;11.35;100.00;101972.47;5273730;28;20039;-74
2024/03/21 00:11:51;;;;;;;56.78;26.60;;;;;;;11.35;100.00;101963.59;5268203;28;20028;-75
2024/03/21 00:14:21;;;;;;;49.63;24.55;;;;;;;11.30;100.00;101973.91;5272315;28;20024;-75
2024/03/21 00:16:52;;;;;;;46.63;24.35;;;;;;;11.26;100.00;101988.63;5271986;28;20016;-75
2024/03/21 00:19:23;;;;;;;56.55;27.38;;;;;;;11.26;100.00;101994.84;5271798;28;20024;-75
2024/03/21 00:21:53;;;;;;;57.70;25.65;;;;;;;11.25;100.00;101997.66;5271882;28;20032;-75
2024/03/21 00:24:24;;;;;;;60.95;27.83;;;;;;;11.24;100.00;102001.31;5274395;28;20036;-75
2024/03/21 00:26:54;;;;;;;60.38;28.90;;;;;;;11.25;100.00;102003.03;5271187;28;20034;-74
2024/03/21 00:29:25;;;;;;;48.92;24.77;;;;;;;11.23;100.00;102007.69;5273101;28;20072;-74
2024/03/21 00:31:55;;;;;;;68.40;33.38;;;;;;;11.29;100.00;102013.34;5272594;28;20024;-75
2024/03/21 00:34:26;;;;;;;65.28;30.95;;;;;;;11.38;100.00;102009.78;5271149;28;20032;-75
2024/03/21 00:36:57;;;;;;;63.97;30.40;;;;;;;11.41;100.00;102014.91;5273953;28;20028;-74
2024/03/21 00:39:27;;;;;;;63.90;31.35;;;;;;;11.39;100.00;102021.38;5272563;28;20012;-75
2024/03/21 00:41:58;;;;;;;68.50;34.25;;;;;;;11.39;100.00;102018.69;5267491;28;20024;-75
2024/03/21 00:44:29;;;;;;;80.60;40.00;;;;;;;11.48;100.00;102025.91;5265071;28;20664;-74
2024/03/21 00:46:59;;;;;;;84.05;41.10;;;;;;;11.60;100.00;102026.63;5268218;28;20039;-75
2024/03/21 00:49:30;;;;;;;90.22;40.95;;;;;;;11.75;100.00;102021.63;5264136;28;20542;-75
2024/03/21 00:52:01;;;;;;;88.05;42.03;;;;;;;11.87;100.00;102028.56;5270308;28;20663;-75
2024/03/21 00:54:32;;;;;;;87.60;42.22;;;;;;;12.02;100.00;102032.47;5272044;28;20451;-75
2024/03/21 00:57:03;;;;;;;86.90;41.88;;;;;;;12.12;100.00;102027.91;5269219;28;20106;-74
2024/03/21 00:59:33;;;;;;;83.72;40.00;;;;;;;12.18;100.00;102035.38;5264907;28;20103;-75
2024/03/21 01:02:04;;;;;;;81.85;39.88;;;;;;;12.16;100.00;102034.69;5260288;28;20056;-75
2024/03/21 01:04:34;;;;;;;80.18;40.08;;;;;;;12.18;100.00;102038.06;5264745;28;20828;-74
2024/03/21 01:07:05;;;;;;;82.03;39.67;;;;;;;12.17;100.00;102036.38;5269022;28;20031;-75
2024/03/21 01:09:36;;;;;;;75.85;37.25;;;;;;;12.19;100.00;102041.59;5266609;28;20127;-75
2024/03/21 01:12:07;;;;;;;72.82;35.90;;;;;;;12.21;100.00;102038.78;5263371;28;20020;-76
2024/03/21 01:14:37;;;;;;;82.65;34.83;;;;;;;12.18;100.00;102040.75;5265115;28;20024;-75
2024/03/21 01:17:08;;;;;;;71.32;35.75;;;;;;;12.21;100.00;102034.25;5267127;28;20530;-74
2024/03/21 01:19:39;;;;;;;71.93;35.58;;;;;;;12.21;100.00;102034.25;5264352;28;20065;-75
2024/03/21 01:22:09;;;;;;;67.80;33.58;;;;;;;12.07;100.00;102032.88;5268400;28;20024;-75
2024/03/21 01:24:40;;;;;;;73.93;35.15;;;;;;;11.97;100.00;102032.06;5265336;28;20487;-74
2024/03/21 01:27:10;;;;;;;73.68;35.25;;;;;;;11.89;100.00;102031.94;5264483;28;20019;-74
2024/03/21 01:29:41;;;;;;;75.18;36.53;;;;;;;11.83;100.00;102032.53;5264240;28;20036;-74
2024/03/21 01:32:12;;;;;;;77.63;36.33;;;;;;;11.75;100.00;102037.75;5263198;28;20020;-75
2024/03/21 01:34:42;;;;;;;83.95;38.60;;;;;;;11.70;100.00;102046.25;5265106;28;20027;-75
2024/03/21 01:37:13;;;;;;;77.45;38.17;;;;;;;11.66;100.00;102048.38;5263798;28;20020;-74
2024/03/21 01:39:44;;;;;;;75.15;35.97;;;;;;;11.64;100.00;102047.66;5267328;28;20016;-76
2024/03/21 01:42:18;;;;;;;81.55;36.90;;;;;;;11.58;100.00;102034.81;5263788;28;20020;-75
2024/03/21 01:45:06;;;;;;;83.45;38.47;;;;;;;11.52;100.00;102038.06;5265146;28;20066;-74
2024/03/21 01:47:36;;;;;;;82.43;39.03;;;;;;;11.43;100.00;102030.88;5259453;28;20057;-74
2024/03/21 01:50:08;;;;;;;82.68;38.88;;;;;;;11.39;100.00;102037.50;5267465;28;20017;-74
2024/03/21 01:52:40;;;;;;;83.18;38.10;;;;;;;11.31;100.00;102035.56;5266486;28;20062;-74
2024/03/21 01:55:14;;;;;;;82.95;40.10;;;;;;;11.25;100.00;102041.50;5264221;28;20039;-75
2024/03/21 01:57:45;;;;;;;84.60;39.20;;;;;;;11.22;100.00;102047.13;5265880;28;20099;-75
2024/03/21 02:00:16;;;;;;;84.78;40.33;;;;;;;11.17;100.00;102045.88;5264424;28;20024;-74
2024/03/21 02:02:46;;;;;;;78.57;38.35;;;;;;;11.22;100.00;102040.91;5263463;28;20012;-74
2024/03/21 02:05:17;;;;;;;85.45;39.50;;;;;;;11.25;100.00;102046.03;5268161;28;20496;-75
2024/03/21 02:07:47;;;;;;;80.25;38.47;;;;;;;11.30;100.00;102043.75;5269097;28;20389;-74
2024/03/21 02:10:18;;;;;;;87.68;39.97;;;;;;;11.37;100.00;102050.25;5272717;28;20095;-74
2024/03/21 02:12:50;;;;;;;78.00;39.75;;;;;;;11.44;100.00;102056.72;5266899;28;20023;-74
2024/03/21 02:15:20;;;;;;;85.50;40.28;;;;;;;11.47;100.00;102055.63;5272200;28;20051;-74
2024/03/21 02:17:51;;;;;;;77.47;36.65;;;;;;;11.47;100.00;102042.19;5268394;28;20633;-74
2024/03/21 02:20:22;;;;;;;80.95;36.95;;;;;;;11.46;100.00;102049.41;5269672;28;20069;-74
2024/03/21 02:22:52;;;;;;;79.40;36.58;;;;;;;11.41;100.00;102040.91;5271217;28;20031;-74
2024/03/21 02:25:23;;;;;;;70.35;35.63;;;;;;;11.29;100.00;102034.81;5270019;28;20016;-74
2024/03/21 02:27:53;;;;;;;66.22;34.63;;;;;;;11.14;100.00;102039.81;5272321;28;20109;-75
2024/03/21 02:30:24;;;;;;;77.30;33.92;;;;;;;11.03;100.00;102041.75;5268064;28;20016;-74
2024/03/21 02:32:54;;;;;;;71.15;33.28;;;;;;;10.89;100.00;102034.94;5271120;28;20047;-74
2024/03/21 02:35:25;;;;;;;69.85;32.80;;;;;;;10.70;100.00;102030.41;5270763;28;20019;-75
2024/03/21 02:37:55;;;;;;;60.47;29.10;;;;;;;10.48;100.00;102030.63;5269522;28;20039;-74
2024/03/21 02:40:26;;;;;;;65.05;31.23;;;;;;;10.31;100.00;102034.81;5277390;28;20028;-74
2024/03/21 02:42:56;;;;;;;71.63;33.72;;;;;;;10.26;100.00;102047.78;5271914;28;20028;-74
2024/03/21 02:45:27;;;;;;;72.97;32.28;;;;;;;10.23;100.00;102051.53;5273831;28;20024;-74
2024/03/21 02:47:57;;;;;;;70.85;33.13;;;;;;;10.26;100.00;102058.53;5273886;28;20043;-74
2024/03/21 02:50:28;;;;;;;63.17;31.23;;;;;;;10.25;100.00;102067.56;5275319;28;20048;-74
2024/03/21 02:52:59;;;;;;;70.70;32.33;;;;;;;10.22;100.00;102076.66;5272940;28;20034;-74
2024/03/21 02:55:30;;;;;;;61.53;30.20;;;;;;;10.17;100.00;102080.75;5273125;28;20051;-75
2024/03/21 02:58:00;;;;;;;68.80;34.00;;;;;;;10.16;100.00;102093.31;5271420;28;20084;-73
2024/03/21 03:00:36;;;;;;;67.80;32.58;;;;;;;10.16;100.00;102087.94;5264981;28;20024;-74
2024/03/21 03:03:07;;;;;;;69.55;31.65;;;;;;;10.10;100.00;102078.59;5269874;28;20027;-74
2024/03/21 03:05:40;;;;;;;62.17;30.17;;;;;;;10.01;100.00;102065.97;5274089;28;20062;-74
2024/03/21 03:08:11;;;;;;;67.47;31.92;;;;;;;9.96;100.00;102076.25;5272927;28;20503;-74
2024/03/21 03:10:43;;;;;;;72.72;32.50;;;;;;;9.96;100.00;102088.81;5269200;28;20473;-74
2024/03/21 03:13:14;;;;;;;69.43;30.98;;;;;;;9.97;100.00;102099.41;5271843;28;20076;-74
2024/03/21 03:15:44;;;;;;;66.28;31.05;;;;;;;9.89;100.00;102096.53;5270372;28;20024;-74
2024/03/21 03:18:15;;;;;;;71.68;32.03;;;;;;;9.90;100.00;102108.13;5276795;28;20027;-74
2024/03/21 03:20:52;;;;;;;63.47;30.58;;;;;;;9.90;100.00;102108.13;5270136;28;20032;-73
2024/03/21 03:23:24;;;;;;;59.33;29.95;;;;;;;9.83;100.00;102100.56;5270831;28;20026;-74
2024/03/21 03:25:54;;;;;;;69.35;32.17;;;;;;;9.79;100.00;102103.66;5273809;28;20520;-75
2024/03/21 03:28:27;;;;;;;75.88;31.63;;;;;;;9.74;100.00;102092.47;5272770;28;20086;-74
2024/03/21 03:31:12;;;;;;;71.03;31.27;;;;;;;9.63;100.00;102090.69;5271605;28;20046;-74
2024/03/21 03:36:36;;;;;;;75.90;32.92;;;;;;;9.45;100.00;102098.47;5267370;28;20428;-74
2024/03/21 03:39:07;;;;;;;70.28;33.63;;;;;;;9.44;100.00;102102.13;5273795;28;20035;-74
2024/03/21 03:41:38;;;;;;;68.70;30.02;;;;;;;9.43;100.00;102105.75;5270512;28;20504;-74
2024/03/21 03:44:08;;;;;;;69.47;32.20;;;;;;;9.39;100.00;102111.50;5272300;28;20435;-74
2024/03/21 03:46:39;;;;;;;71.85;30.83;;;;;;;9.38;100.00;102126.72;5271089;28;20373;-75
2024/03/21 03:49:09;;;;;;;72.07;31.42;;;;;;;9.38;100.00;102132.09;5273425;28;20073;-74
2024/03/21 03:51:40;;;;;;;70.10;30.45;;;;;;;9.33;100.00;102134.28;5269432;28;20024;-74
2024/03/21 03:54:10;;;;;;;64.28;31.38;;;;;;;9.32;100.00;102151.34;5273786;28;20427;-74
2024/03/21 03:56:41;;;;;;;60.25;29.52;;;;;;;9.30;100.00;102148.81;5272800;28;20018;-74
2024/03/21 03:59:11;;;;;;;69.40;30.77;;;;;;;9.26;100.00;102151.84;5269887;28;20019;-75
2024/03/21 04:01:42;;;;;;;78.03;33.17;;;;;;;9.21;100.00;102143.34;5270238;28;20359;-74
2024/03/21 04:04:12;;;;;;;67.60;31.90;;;;;;;9.18;100.00;102149.78;5268734;28;20034;-74
2024/03/21 04:06:43;;;;;;;72.43;32.28;;;;;;;9.15;100.00;102151.88;5273732;28;20020;-74
2024/03/21 04:09:13;;;;;;;71.10;32.85;;;;;;;9.16;100.00;102154.44;5275331;28;20392;-75
2024/03/21 04:11:44;;;;;;;67.63;31.58;;;;;;;9.16;100.00;102150.91;5270712;28;20099;-74
2024/03/21 04:14:14;;;;;;;77.57;34.47;;;;;;;9.17;100.00;102149.91;5271322;28;20084;-74
2024/03/21 04:16:45;;;;;;;81.00;34.63;;;;;;;9.14;100.00;102151.03;5269786;28;20111;-74
2024/03/21 04:19:15;;;;;;;76.60;32.38;;;;;;;9.16;100.00;102165.16;5270627;28;20500;-75
2024/03/21 04:21:45;;;;;;;69.55;31.85;;;;;;;9.12;100.00;102162.84;5272112;28;20148;-74
2024/03/21 04:24:16;;;;;;;77.03;32.95;;;;;;;9.07;100.00;102160.53;5271662;28;20020;-74
2024/03/21 04:26:47;;;;;;;71.05;31.35;;;;;;;9.02;100.00;102170.75;5271929;28;20440;-74
2024/03/21 04:29:17;;;;;;;72.63;32.15;;;;;;;8.97;100.00;102168.44;5270923;27;20016;-74
2024/03/21 04:31:48;;;;;;;73.72;33.70;;;;;;;8.91;100.00;102168.09;5269819;28;20020;-74
2024/03/21 04:34:18;;;;;;;79.13;33.70;;;;;;;8.86;100.00;102183.69;5271334;28;20715;-74
2024/03/21 04:36:49;;;;;;;64.85;31.50;;;;;;;8.83;100.00;102176.72;5268181;28;20028;-74
2024/03/21 04:39:19;;;;;;;78.40;33.45;;;;;;;8.78;100.00;102182.44;5271630;28;20380;-74
2024/03/21 04:41:50;;;;;;;78.50;33.40;;;;;;;8.77;100.00;102190.59;5270939;28;20024;-74
2024/03/21 04:44:21;;;;;;;71.53;33.22;;;;;;;8.79;100.00;102196.72;5272314;28;20023;-74
2024/03/21 04:46:51;;;;;;;94.60;36.25;;;;;;;8.86;100.00;102202.41;5272217;28;20024;-74
2024/03/21 04:49:21;;;;;;;99.55;37.75;;;;;;;8.94;100.00;102208.00;5266557;28;20024;-74
2024/03/21 04:51:52;;;;;;;95.25;38.13;;;;;;;8.98;100.00;102210.28;5271768;28;20080;-75
2024/03/21 04:54:23;;;;;;;104.55;41.60;;;;;;;9.06;100.00;102201.66;5273155;28;20015;-74
2024/03/21 04:56:53;;;;;;;116.50;46.65;;;;;;;9.16;100.00;102216.00;5273200;28;20023;-75
2024/03/21 04:59:27;;;;;;;120.38;49.95;;;;;;;9.32;100.00;102216.47;5273516;28;20027;-75
2024/03/21 05:01:58;;;;;;;126.68;51.63;;;;;;;9.47;100.00;102218.88;5266914;28;20477;-75
2024/03/21 05:04:28;;;;;;;127.75;53.53;;;;;;;9.62;100.00;102225.66;5272181;28;20016;-74
2024/03/21 05:06:59;;;;;;;114.15;49.58;;;;;;;9.70;100.00;102212.47;5272827;28;20024;-75
2024/03/21 05:09:29;;;;;;;126.63;50.88;;;;;;;9.79;100.00;102211.72;5268367;28;20477;-74
2024/03/21 05:12:00;;;;;;;116.95;50.88;;;;;;;9.89;100.00;102227.00;5272220;28;20077;-75
2024/03/21 05:14:33;;;;;;;122.03;52.47;;;;;;;9.95;100.00;102231.88;5268276;28;20012;-75
2024/03/21 05:17:04;;;;;;;125.82;54.20;;;;;;;10.00;100.00;102235.88;5270283;28;20088;-74
2024/03/21 05:19:35;;;;;;;118.30;52.95;;;;;;;10.08;100.00;102240.56;5270301;28;20488;-74
2024/03/21 05:22:05;;;;;;;107.78;50.60;;;;;;;10.11;100.00;102237.66;5269623;28;20106;-75
2024/03/21 05:24:36;;;;;;;121.72;50.45;;;;;;;10.19;100.00;102248.59;5268578;28;20024;-74
2024/03/21 05:27:06;;;;;;;116.75;51.10;;;;;;;10.26;100.00;102235.53;5271111;28;20035;-75
2024/03/21 05:29:38;;;;;;;118.22;53.97;;;;;;;10.27;100.00;102243.44;5270057;28;20028;-74
2024/03/21 05:32:09;;;;;;;117.82;50.22;;;;;;;10.32;100.00;102245.72;5270502;28;20051;-75
2024/03/21 05:34:39;;;;;;;115.78;51.38;;;;;;;10.36;100.00;102244.50;5268887;28;20047;-74
2024/03/21 05:37:10;;;;;;;116.55;52.33;;;;;;;10.40;100.00;102251.31;5274928;28;20047;-75
2024/03/21 05:39:40;;;;;;;117.45;51.00;;;;;;;10.43;100.00;102256.41;5268190;28;20485;-75
2024/03/21 05:42:12;;;;;;;108.68;49.22;;;;;;;10.43;100.00;102258.22;5266608;28;20027;-75
2024/03/21 05:44:43;;;;;;;104.78;48.35;;;;;;;10.44;100.00;102266.16;5270119;28;20028;-75
2024/03/21 05:47:23;;;;;;;124.05;51.85;;;;;;;10.47;100.00;102276.63;5273403;28;20085;-75
2024/03/21 05:49:53;;;;;;;116.57;49.22;;;;;;;10.50;100.00;102276.38;5267581;28;20538;-75
2024/03/21 05:52:24;;;;;;;104.78;48.53;;;;;;;10.53;100.00;102281.47;5269286;28;20028;-75
2024/03/21 05:54:54;;;;;;;112.68;50.63;;;;;;;10.58;100.00;102281.91;5268432;28;20051;-75
2024/03/21 05:57:25;;;;;;;123.35;50.90;;;;;;;10.61;100.00;102283.50;5272788;28;20039;-75
2024/03/21 05:59:55;;;;;;;116.85;50.22;;;;;;;10.63;100.00;102286.88;5269683;28;20048;-75
2024/03/21 06:02:26;;;;;;;115.72;51.47;;;;;;;10.65;100.00;102290.31;5268095;28;20028;-75
2024/03/21 06:04:56;;;;;;;122.30;50.97;;;;;;;10.67;100.00;102293.69;5269244;28;20028;-75
2024/03/21 06:07:27;;;;;;;125.63;53.00;;;;;;;10.68;100.00;102292.72;5268838;28;20389;-75
2024/03/21 06:09:57;;;;;;;117.82;50.85;;;;;;;10.71;100.00;102299.66;5270169;28;20020;-75
2024/03/21 06:12:29;;;;;;;117.57;52.50;;;;;;;10.74;100.00;102297.53;5266066;28;20024;-75
2024/03/21 06:14:59;;;;;;;114.20;50.72;;;;;;;10.73;100.00;102305.75;5270527;28;20031;-75
2024/03/21 06:17:30;;;;;;;106.00;47.15;;;;;;;10.77;100.00;102312.56;5267014;28;20023;-75
2024/03/21 06:20:00;;;;;;;97.72;43.17;;;;;;;10.79;100.00;102313.25;5270292;28;20038;-74
2024/03/21 06:22:33;;;;;;;91.35;41.67;;;;;;;10.83;100.00;102320.91;5267547;28;20016;-75
2024/03/21 06:25:04;;;;;;;97.55;40.63;;;;;;;10.89;100.00;102323.09;5264968;28;20043;-75
2024/03/21 06:27:34;;;;;;;66.35;30.98;;;;;;;10.88;100.00;102318.69;5269580;28;20090;-75
2024/03/21 06:30:06;;;;;;;67.78;29.80;;;;;;;10.99;100.00;102328.50;5269716;28;20605;-75
2024/03/21 06:32:36;;;;;;;55.95;25.00;;;;;;;11.02;100.00;102325.56;5263025;28;20020;-75
2024/03/21 06:35:07;;;;;;;53.65;24.20;;;;;;;11.03;100.00;102326.41;5269206;28;20026;-75
2024/03/21 06:37:38;;;;;;;55.90;23.92;;;;;;;11.05;100.00;102332.50;5268967;28;20103;-75
2024/03/21 06:40:09;;;;;;;49.15;22.52;;;;;;;11.12;100.00;102339.88;5267572;28;20057;-75
2024/03/21 06:42:39;;;;;;;44.78;22.00;;;;;;;11.14;100.00;102343.31;5268437;28;20052;-75
2024/03/21 06:45:10;;;;;;;42.85;21.13;;;;;;;11.13;100.00;102346.09;5272117;28;20028;-74
2024/03/21 06:47:43;;;;;;;39.88;20.25;;;;;;;11.16;100.00;102345.84;5270492;28;20111;-75
2024/03/21 06:50:16;;;;;;;41.70;20.63;;;;;;;11.20;100.00;102355.34;5267048;28;20028;-75
2024/03/21 06:52:49;;;;;;;38.30;19.67;;;;;;;11.23;100.00;102356.91;5269003;28;20684;-75
2024/03/21 06:55:20;;;;;;;40.42;19.65;;;;;;;11.18;100.00;102357.31;5272036;28;20153;-74
2024/03/21 06:57:56;;;;;;;36.25;20.02;;;;;;;11.27;100.00;102358.34;5273472;28;20020;-75
2024/03/21 07:00:28;;;;;;;40.45;19.88;;;;;;;11.29;100.00;102364.41;5270157;28;20024;-74
2024/03/21 07:02:59;;;;;;;35.45;18.10;;;;;;;11.33;100.00;102371.22;5267303;28;20073;-74
2024/03/21 07:05:29;;;;;;;36.50;18.92;;;;;;;11.36;100.00;102381.72;5268033;28;20020;-74
2024/03/21 07:08:01;;;;;;;38.85;20.60;;;;;;;11.36;100.00;102381.72;5273088;28;20092;-75
2024/03/21 07:10:32;;;;;;;43.35;21.50;;;;;;;11.31;100.00;102390.19;5269754;28;20099;-74
2024/03/21 07:13:03;;;;;;;51.33;23.15;;;;;;;11.32;100.00;102391.88;5269155;28;20026;-75
2024/03/21 07:15:33;;;;;;;52.65;24.23;;;;;;;11.32;100.00;102399.09;5269752;28;20024;-75
2024/03/21 07:18:04;;;;;;;56.50;25.77;;;;;;;11.33;100.00;102393.56;5271013;28;20027;-75
2024/03/21 07:20:34;;;;;;;62.10;26.83;;;;;;;11.28;100.00;102411.09;5267481;28;20020;-75
2024/03/21 07:23:06;;;;;;;59.35;26.90;;;;;;;11.27;100.00;102418.28;5272188;28;20034;-75
2024/03/21 07:25:36;;;;;;;64.75;27.40;;;;;;;11.17;100.00;102414.69;5268205;28;20020;-74
2024/03/21 07:28:07;;;;;;;56.92;26.75;;;;;;;11.12;100.00;102415.09;5274179;28;20027;-75
2024/03/21 07:30:37;;;;;;;68.68;30.38;;;;;;;11.11;100.00;102421.47;5269216;28;20028;-74
2024/03/21 07:33:08;;;;;;;67.03;28.65;;;;;;;11.13;100.00;102424.00;5272463;28;20035;-74
2024/03/21 07:35:38;;;;;;;61.72;27.23;;;;;;;11.15;100.00;102435.47;5255652;28;20028;-75
2024/03/21 07:38:09;;;;;;;52.97;24.83;;;;;;;11.16;100.00;102439.88;5273514;28;20020;-75
2024/03/21 07:40:40;;;;;;;47.30;22.95;;;;;;;11.15;100.00;102446.22;5272911;28;20064;-75
2024/03/21 07:43:11;;;;;;;55.13;22.98;;;;;;;11.15;100.00;102438.16;5274068;28;20027;-74
2024/03/21 07:45:41;;;;;;;49.30;23.25;;;;;;;11.18;100.00;102442.41;5273134;28;20024;-76
2024/03/21 07:48:12;;;;;;;46.17;20.92;;;;;;;11.18;100.00;102448.63;5276006;28;20031;-75
2024/03/21 07:50:42;;;;;;;44.65;20.48;;;;;;;11.22;100.00;102459.97;5272313;28;20024;-75
2024/03/21 07:53:13;;;;;;;33.80;17.20;;;;;;;11.19;100.00;102460.22;5272614;28;20362;-75
2024/03/21 07:55:43;;;;;;;36.60;17.85;;;;;;;11.20;100.00;102465.50;5268864;28;20688;-75
2024/03/21 07:58:14;;;;;;;42.13;19.45;;;;;;;11.24;100.00;102479.50;5275893;27;20066;-75
2024/03/21 08:00:44;;;;;;;37.70;17.88;;;;;;;11.23;100.00;102480.47;5269490;28;20016;-75
2024/03/21 08:03:15;;;;;;;35.72;17.83;;;;;;;11.25;100.00;102490.13;5267986;28;20023;-74
2024/03/21 08:05:46;;;;;;;33.55;17.88;;;;;;;11.23;100.00;102491.22;5271801;28;20028;-74
2024/03/21 08:08:17;;;;;;;40.10;17.45;;;;;;;11.23;100.00;102493.91;5274663;28;20027;-74
2024/03/21 08:10:47;;;;;;;35.28;15.68;;;;;;;11.16;100.00;102493.59;5269496;28;20055;-75
2024/03/21 08:13:18;;;;;;;29.85;15.15;;;;;;;11.20;100.00;102503.09;5272707;28;20495;-75
2024/03/21 08:15:51;;;;;;;36.90;16.92;;;;;;;11.25;100.00;102503.56;5273834;28;20016;-74
2024/03/21 08:18:22;;;;;;;33.92;16.45;;;;;;;11.31;100.00;102494.97;5273113;28;20031;-74
2024/03/21 08:20:53;;;;;;;31.42;16.10;;;;;;;11.39;100.00;102488.91;5270428;28;20085;-75
2024/03/21 08:23:23;;;;;;;32.40;15.75;;;;;;;11.46;100.00;102495.50;5269625;28;20020;-74
2024/03/21 08:25:54;;;;;;;33.42;16.55;;;;;;;11.55;100.00;102494.72;5273074;28;20024;-75
2024/03/21 08:28:24;;;;;;;34.30;16.27;;;;;;;11.63;100.00;102494.03;5273832;28;20012;-75
2024/03/21 08:30:55;;;;;;;34.95;17.65;;;;;;;11.67;100.00;102490.94;5271728;28;20097;-74
2024/03/21 08:33:26;;;;;;;32.50;15.27;;;;;;;11.67;100.00;102508.91;5271779;28;20027;-74
2024/03/21 08:35:56;;;;;;;33.72;16.23;;;;;;;11.65;100.00;102506.38;5271122;28;20028;-75
2024/03/21 08:38:27;;;;;;;44.50;18.75;;;;;;;11.59;100.00;102498.81;5272371;27;20377;-75
2024/03/21 08:40:57;;;;;;;37.53;16.85;;;;;;;11.56;100.00;102496.41;5275371;28;20160;-74
2024/03/21 08:43:28;;;;;;;41.72;17.90;;;;;;;11.63;100.00;102504.78;5267499;28;20031;-74
2024/03/21 08:45:58;;;;;;;43.40;18.55;;;;;;;11.63;100.00;102507.47;5273812;28;20392;-75
2024/03/21 08:48:29;;;;;;;33.22;15.82;;;;;;;11.59;100.00;102498.81;5272393;28;20069;-74
2024/03/21 08:50:59;;;;;;;37.20;15.63;;;;;;;11.59;100.00;102511.41;5271783;28;20027;-75
2024/03/21 08:53:30;;;;;;;32.05;15.20;;;;;;;11.58;100.00;102512.38;5270662;28;20027;-75
2024/03/21 08:56:01;;;;;;;28.08;14.57;;;;;;;11.60;100.00;102522.03;5275035;28;20110;-75
2024/03/21 08:58:31;;;;;;;29.88;13.52;;;;;;;11.68;100.00;102532.13;5272389;28;20026;-75
2024/03/21 09:01:02;;;;;;;25.67;12.70;;;;;;;11.67;100.00;102530.41;5271996;28;20023;-75
2024/03/21 09:03:33;;;;;;;23.60;12.82;;;;;;;11.67;100.00;102533.94;5261169;28;20366;-75
2024/03/21 09:06:04;;;;;;;24.73;12.80;;;;;;;11.61;100.00;102542.56;5272023;28;20098;-75
2024/03/21 09:08:34;;;;;;;27.80;12.60;;;;;;;11.54;100.00;102540.50;5270780;28;20026;-74
2024/03/21 09:11:05;;;;;;;27.75;13.13;;;;;;;11.59;100.00;102546.34;5274605;28;20051;-75
2024/03/21 09:13:35;;;;;;;32.38;15.40;;;;;;;11.65;100.00;102548.53;5268033;28;20013;-75
2024/03/21 09:16:07;;;;;;;31.55;15.18;;;;;;;11.70;100.00;102551.66;5275383;28;20392;-75
2024/03/21 09:18:38;;;;;;;37.00;16.65;;;;;;;11.81;100.00;102551.59;5263869;28;20016;-74
2024/03/21 09:21:12;;;;;;;34.85;16.55;;;;;;;11.91;100.00;102562.44;5273741;28;20027;-75
2024/03/21 09:23:42;;;;;;;44.40;18.63;;;;;;;11.96;100.00;102562.03;5270881;28;20046;-75
2024/03/21 09:26:13;;;;;;;48.35;21.48;;;;;;;12.06;100.00;102557.56;5272760;28;20020;-74
2024/03/21 09:28:43;;;;;;;49.80;22.95;;;;;;;12.17;100.00;102554.78;5280921;28;20141;-74
2024/03/21 09:31:14;;;;;;;46.90;21.67;;;;;;;12.26;100.00;102561.19;5276223;28;20073;-74
2024/03/21 09:33:44;;;;;;;41.95;20.08;;;;;;;12.32;100.00;102549.88;5273841;28;20019;-74
2024/03/21 09:36:15;;;;;;;40.83;19.77;;;;;;;12.36;100.00;102548.63;5278057;28;20448;-75
2024/03/21 09:38:45;;;;;;;43.67;19.58;;;;;;;12.45;100.00;102547.81;5268039;28;20171;-75
2024/03/21 09:41:16;;;;;;;41.60;19.08;;;;;;;12.49;100.00;102546.50;5274485;28;20369;-75
2024/03/21 09:43:46;;;;;;;36.75;18.10;;;;;;;12.46;100.00;102543.25;5276461;28;20020;-74
2024/03/21 09:46:17;;;;;;;36.10;17.15;;;;;;;12.48;100.00;102543.97;5271841;28;20031;-75
2024/03/21 09:48:48;;;;;;;35.83;18.52;;;;;;;12.57;100.00;102549.38;5275957;28;20048;-74
2024/03/21 09:51:21;;;;;;;48.58;20.75;;;;;;;12.70;100.00;102541.91;5270581;28;20020;-75
2024/03/21 09:53:54;;;;;;;41.10;20.30;;;;;;;12.77;100.00;102542.19;5273353;28;20051;-74
2024/03/21 09:56:25;;;;;;;47.35;22.38;;;;;;;12.78;100.00;102545.72;5275314;28;20489;-74
2024/03/21 09:58:55;;;;;;;43.05;21.02;;;;;;;12.79;100.00;102552.81;5271831;28;20085;-74
2024/03/21 10:01:26;;;;;;;45.80;21.65;;;;;;;12.82;100.00;102549.84;5276954;28;20055;-75
2024/03/21 10:03:57;;;;;;;41.42;20.73;;;;;;;12.91;100.00;102551.72;5265712;28;20048;-75
2024/03/21 10:06:28;;;;;;;48.25;23.73;;;;;;;13.02;100.00;102550.72;5267344;28;20107;-75
2024/03/21 10:08:58;;;;;;;46.97;23.63;;;;;;;13.14;100.00;102554.97;5275646;28;20024;-75
2024/03/21 10:11:29;;;;;;;54.00;24.27;;;;;;;13.19;100.00;102560.78;5270743;28;20028;-75
2024/03/21 10:14:00;;;;;;;51.85;24.92;;;;;;;13.13;100.00;102554.13;5275029;28;20112;-75
2024/03/21 10:16:31;;;;;;;64.20;30.67;;;;;;;13.15;100.00;102562.94;5275188;28;20020;-75
2024/03/21 10:19:02;;;;;;;70.82;33.30;;;;;;;13.11;100.00;102568.75;5273581;28;20244;-75
2024/03/21 10:21:32;;;;;;;73.10;34.20;;;;;;;13.13;100.00;102569.44;5272479;28;20017;-75
2024/03/21 10:24:04;;;;;;;73.68;33.90;;;;;;;13.08;100.00;102569.88;5274220;28;20429;-75
2024/03/21 10:26:34;;;;;;;69.38;33.67;;;;;;;13.11;100.00;102583.06;5272256;28;20466;-75
2024/03/21 10:29:09;;;;;;;71.55;35.03;;;;;;;13.06;100.00;102584.50;5272321;28;20149;-75
2024/03/21 10:31:41;;;;;;;69.72;34.50;;;;;;;13.07;100.00;102591.56;5266148;28;20103;-75
2024/03/21 10:34:13;;;;;;;73.63;36.50;;;;;;;13.16;100.00;102596.97;5265310;28;20605;-74
2024/03/21 10:36:43;;;;;;;68.68;33.38;;;;;;;13.28;100.00;102599.56;5271250;28;20046;-75
2024/03/21 10:39:13;;;;;;;71.50;33.47;;;;;;;13.42;100.00;102599.13;5273363;28;20020;-74
2024/03/21 10:41:45;;;;;;;65.97;33.45;;;;;;;13.54;100.00;102597.13;5269024;28;20016;-75
2024/03/21 10:44:17;;;;;;;78.82;34.85;;;;;;;13.53;100.00;102596.28;5279982;28;20548;-75
2024/03/21 10:46:47;;;;;;;67.50;33.28;;;;;;;13.58;100.00;102596.72;5266523;28;20028;-75
2024/03/21 10:49:19;;;;;;;73.03;36.63;;;;;;;13.43;100.00;102596.28;5272673;28;20020;-75
2024/03/21 10:51:52;;;;;;;70.70;36.65;;;;;;;13.43;100.00;102608.91;5267461;28;20477;-75
2024/03/21 10:54:23;;;;;;;71.43;34.35;;;;;;;13.43;100.00;102604.38;5271433;28;20016;-75
2024/03/21 10:56:57;;;;;;;75.10;33.95;;;;;;;13.41;100.00;102611.78;5273987;28;20048;-75
2024/03/21 10:59:27;;;;;;;67.25;33.35;;;;;;;13.42;100.00;102612.63;5272844;28;20029;-75
2024/03/21 11:01:58;;;;;;;69.82;35.33;;;;;;;13.39;100.00;102623.66;5277819;28;20476;-75
2024/03/21 11:04:34;;;;;;;66.57;33.67;;;;;;;13.14;100.00;102620.50;5269940;28;20099;-75
2024/03/21 11:07:09;;;;;;;64.07;33.13;;;;;;;13.06;100.00;102620.38;5277058;28;20086;-75
2024/03/21 11:09:45;;;;;;;64.53;33.63;;;;;;;13.08;100.00;102620.22;5272184;28;20020;-75
2024/03/21 11:12:16;;;;;;;67.18;35.08;;;;;;;13.13;100.00;102632.28;5271408;28;20107;-75
2024/03/21 11:14:46;;;;;;;61.10;31.38;;;;;;;13.06;100.00;102631.13;5279134;28;20114;-75
2024/03/21 11:17:16;;;;;;;65.15;32.88;;;;;;;13.06;100.00;102638.38;5284603;28;20027;-75
2024/03/21 11:19:52;;;;;;;60.72;30.95;;;;;;;13.05;100.00;102636.66;5279976;28;20026;-76
2024/03/21 11:22:23;;;;;;;49.83;28.27;;;;;;;13.06;100.00;102643.75;5278544;28;20019;-75